createdAt,value
2019-05-26T00:00:08.103Z,6.50
2019-05-26T00:02:38.190Z,6.07
2019-05-26T00:05:08.118Z,6.50
2019-05-26T00:07:37.427Z,7.50
2019-05-26T00:10:07.270Z,6.87
2019-05-26T00:12:36.832Z,6.93
2019-05-26T00:15:07.403Z,7.03
2019-05-26T00:17:36.716Z,6.80
2019-05-26T00:20:09.155Z,6.63
2019-05-26T00:22:38.460Z,7.53
2019-05-26T00:25:08.711Z,7.33
2019-05-26T00:27:38.024Z,6.97
2019-05-26T00:30:08.349Z,6.53
2019-05-26T00:32:38.133Z,6.50
2019-05-26T00:35:08.270Z,7.53
2019-05-26T00:37:49.241Z,6.43
2019-05-26T00:40:10.551Z,6.80
2019-05-26T00:42:39.864Z,6.57
2019-05-26T00:45:09.486Z,7.10
2019-05-26T00:47:38.819Z,7.57
2019-05-26T00:50:08.771Z,6.90
2019-05-26T00:52:38.295Z,7.10
2019-05-26T00:55:08.439Z,7.30
2019-05-26T00:57:37.908Z,7.03
2019-05-26T01:00:08.083Z,6.43
2019-05-26T01:02:37.372Z,7.10
2019-05-26T01:05:07.723Z,7.23
2019-05-26T01:07:38.176Z,7.27
2019-05-26T01:10:08.704Z,7.47
2019-05-26T01:12:39.562Z,8.23
2019-05-26T01:15:09.373Z,7.20
2019-05-26T01:17:38.763Z,7.53
2019-05-26T01:20:08.610Z,7.53
2019-05-26T01:22:37.923Z,7.43
2019-05-26T01:25:07.770Z,7.60
2019-05-26T01:27:37.270Z,7.83
2019-05-26T01:30:10.130Z,7.17
2019-05-26T01:32:39.444Z,7.57
2019-05-26T01:35:08.983Z,8.07
2019-05-26T01:37:39.293Z,7.53
2019-05-26T01:40:09.341Z,7.63
2019-05-26T01:42:38.821Z,7.67
2019-05-26T01:45:09.644Z,7.80
2019-05-26T01:47:38.954Z,6.97
2019-05-26T01:50:08.431Z,7.63
2019-05-26T01:52:37.741Z,6.83
2019-05-26T01:55:07.123Z,7.17
2019-05-26T01:57:37.590Z,7.43
2019-05-26T02:00:08.105Z,7.40
2019-05-26T02:02:37.718Z,7.63
2019-05-26T02:05:08.087Z,7.73
2019-05-26T02:07:37.469Z,8.30
2019-05-26T02:10:07.252Z,8.03
2019-05-26T02:12:36.580Z,7.37
2019-05-26T02:15:07.621Z,7.50
2019-05-26T02:17:36.956Z,8.40
2019-05-26T02:20:06.707Z,7.87
2019-05-26T02:22:36.214Z,8.70
2019-05-26T02:25:11.022Z,7.83
2019-05-26T02:27:40.337Z,7.90
2019-05-26T02:30:10.434Z,7.83
2019-05-26T02:32:39.762Z,8.03
2019-05-26T02:35:10.514Z,7.60
2019-05-26T02:37:39.820Z,8.43
2019-05-26T02:40:09.869Z,8.20
2019-05-26T02:42:39.207Z,7.97
2019-05-26T02:45:11.691Z,7.77
2019-05-26T02:47:41.024Z,8.47
2019-05-26T02:50:11.669Z,8.13
2019-05-26T02:52:40.985Z,8.23
2019-05-26T02:55:10.937Z,8.43
2019-05-26T02:57:40.238Z,9.40
2019-05-26T03:00:11.095Z,8.77
2019-05-26T03:02:40.793Z,8.83
2019-05-26T03:05:13.288Z,8.47
2019-05-26T03:07:45.355Z,8.40
2019-05-26T03:10:16.270Z,8.93
2019-05-26T03:12:47.139Z,9.30
2019-05-26T03:15:18.080Z,9.60
2019-05-26T03:17:48.073Z,8.43
2019-05-26T03:20:18.984Z,10.13
2019-05-26T03:22:49.385Z,9.33
2019-05-26T03:25:18.698Z,10.07
2019-05-26T03:27:48.000Z,9.23
2019-05-26T03:30:17.487Z,10.00
2019-05-26T03:32:46.878Z,10.73
2019-05-26T03:35:16.183Z,9.80
2019-05-26T03:37:45.487Z,9.83
2019-05-26T03:40:14.844Z,10.40
2019-05-26T03:42:44.198Z,10.70
2019-05-26T03:45:16.684Z,10.30
2019-05-26T03:47:45.996Z,10.20
2019-05-26T03:50:15.318Z,9.77
2019-05-26T03:52:44.632Z,10.43
2019-05-26T03:55:14.034Z,9.93
2019-05-26T03:57:43.335Z,9.43
2019-05-26T04:00:12.998Z,9.90
2019-05-26T04:02:42.302Z,9.90
2019-05-26T04:05:11.799Z,10.13
2019-05-26T04:07:41.107Z,9.90
2019-05-26T04:10:10.604Z,9.57
2019-05-26T04:12:39.908Z,9.50
2019-05-26T04:15:09.390Z,9.63
2019-05-26T04:17:38.702Z,10.00
2019-05-26T04:20:08.762Z,9.40
2019-05-26T04:22:38.062Z,9.87
2019-05-26T04:25:08.633Z,9.70
2019-05-26T04:27:37.937Z,9.83
2019-05-26T04:30:07.708Z,10.00
2019-05-26T04:32:37.012Z,10.77
2019-05-26T04:35:09.699Z,11.13
2019-05-26T04:37:39.008Z,11.10
2019-05-26T04:40:26.038Z,11.13
2019-05-26T04:42:39.345Z,11.33
2019-05-26T04:45:08.754Z,11.00
2019-05-26T04:47:38.059Z,11.10
2019-05-26T04:50:08.434Z,11.23
2019-05-26T04:52:37.764Z,10.90
2019-05-26T04:55:07.553Z,10.73
2019-05-26T04:57:36.854Z,10.63
2019-05-26T05:00:07.985Z,10.50
2019-05-26T05:02:37.490Z,10.10
2019-05-26T05:05:10.196Z,11.40
2019-05-26T05:07:39.477Z,10.23
2019-05-26T05:10:08.781Z,9.70
2019-05-26T05:12:38.374Z,10.03
2019-05-26T05:15:09.518Z,10.27
2019-05-26T05:17:38.824Z,10.00
2019-05-26T05:20:08.820Z,9.10
2019-05-26T05:22:38.091Z,9.23
2019-05-26T05:25:14.733Z,8.77
2019-05-26T05:27:39.931Z,8.67
2019-05-26T05:30:10.970Z,8.73
2019-05-26T05:32:40.281Z,8.97
2019-05-26T05:35:10.242Z,7.80
2019-05-26T05:37:39.546Z,7.50
2019-05-26T05:40:09.285Z,7.83
2019-05-26T05:42:38.667Z,7.87
2019-05-26T05:45:08.956Z,7.00
2019-05-26T05:47:38.241Z,7.07
2019-05-26T05:50:08.584Z,7.57
2019-05-26T05:52:37.954Z,6.07
2019-05-26T05:55:07.601Z,6.73
2019-05-26T05:57:36.931Z,6.80
2019-05-26T06:00:09.844Z,5.97
2019-05-26T06:02:39.150Z,5.50
2019-05-26T06:05:08.792Z,6.77
2019-05-26T06:07:38.110Z,6.37
2019-05-26T06:10:09.257Z,6.07
2019-05-26T06:12:38.635Z,5.83
2019-05-26T06:15:11.133Z,5.57
2019-05-26T06:17:40.882Z,5.27
2019-05-26T06:20:10.423Z,5.30
2019-05-26T06:22:39.738Z,4.93
2019-05-26T06:25:09.191Z,4.67
2019-05-26T06:27:38.564Z,4.40
2019-05-26T06:30:09.618Z,3.87
2019-05-26T06:32:39.261Z,3.97
2019-05-26T06:35:08.829Z,4.30
2019-05-26T06:37:38.155Z,4.93
2019-05-26T06:40:08.122Z,3.87
2019-05-26T06:42:37.438Z,4.07
2019-05-26T06:45:07.108Z,4.27
2019-05-26T06:47:36.400Z,4.07
2019-05-26T06:50:08.912Z,3.93
2019-05-26T06:52:38.269Z,4.10
2019-05-26T06:55:07.730Z,4.20
2019-05-26T06:57:37.026Z,3.80
2019-05-26T07:00:07.858Z,3.30
2019-05-26T07:02:37.156Z,3.30
2019-05-26T07:05:07.794Z,3.50
2019-05-26T07:07:37.125Z,4.20
2019-05-26T07:10:07.393Z,3.83
2019-05-26T07:12:36.978Z,3.33
2019-05-26T07:15:09.943Z,4.17
2019-05-26T07:17:39.361Z,3.70
2019-05-26T07:20:08.731Z,4.07
2019-05-26T07:22:38.208Z,3.93
2019-05-26T07:25:09.182Z,4.67
2019-05-26T07:27:38.476Z,4.30
2019-05-26T07:30:09.427Z,4.57
2019-05-26T07:32:38.809Z,3.50
2019-05-26T07:35:08.541Z,3.87
2019-05-26T07:37:37.976Z,4.23
2019-05-26T07:40:07.414Z,3.70
2019-05-26T07:42:36.732Z,4.03
2019-05-26T07:45:06.763Z,3.73
2019-05-26T07:47:36.084Z,3.90
2019-05-26T07:50:07.002Z,3.70
2019-05-26T07:52:36.474Z,4.83
2019-05-26T07:55:06.442Z,3.47
2019-05-26T07:57:35.761Z,3.50
2019-05-26T08:00:08.182Z,3.70
2019-05-26T08:02:37.533Z,3.30
2019-05-26T08:05:07.516Z,3.20
2019-05-26T08:07:36.844Z,2.87
2019-05-26T08:10:07.209Z,3.23
2019-05-26T08:12:36.502Z,2.83
2019-05-26T08:15:06.238Z,2.67
2019-05-26T08:17:35.554Z,2.47
2019-05-26T08:20:06.657Z,2.83
2019-05-26T08:22:36.003Z,2.47
2019-05-26T08:25:06.941Z,2.83
2019-05-26T08:27:36.248Z,2.83
2019-05-26T08:30:06.997Z,2.10
2019-05-26T08:32:36.366Z,2.00
2019-05-26T08:35:08.795Z,2.13
2019-05-26T08:37:38.165Z,2.37
2019-05-26T08:40:19.798Z,2.50
2019-05-26T08:42:51.105Z,2.10
2019-05-26T08:45:22.646Z,2.30
2019-05-26T08:47:52.630Z,2.47
2019-05-26T08:50:22.953Z,2.37
2019-05-26T08:52:52.274Z,2.30
2019-05-26T08:55:21.946Z,2.27
2019-05-26T08:57:51.316Z,2.87
2019-05-26T09:00:20.806Z,2.40
2019-05-26T09:02:50.098Z,2.13
2019-05-26T09:05:19.688Z,2.20
2019-05-26T09:07:48.994Z,2.30
2019-05-26T09:10:18.636Z,2.97
2019-05-26T09:13:00.306Z,2.93
2019-05-26T09:15:20.206Z,3.03
2019-05-26T09:17:49.513Z,2.77
2019-05-26T09:20:19.174Z,2.80
2019-05-26T09:22:48.470Z,2.33
2019-05-26T09:25:17.856Z,3.37
2019-05-26T09:27:47.220Z,3.13
2019-05-26T09:30:16.986Z,3.60
2019-05-26T09:32:46.286Z,2.90
2019-05-26T09:35:16.441Z,3.40
2019-05-26T09:37:45.808Z,3.23
2019-05-26T09:40:15.990Z,3.67
2019-05-26T09:42:45.260Z,3.10
2019-05-26T09:45:14.818Z,2.77
2019-05-26T09:47:44.280Z,3.13
2019-05-26T09:50:13.939Z,2.43
2019-05-26T09:52:43.246Z,3.33
2019-05-26T09:55:12.745Z,3.43
2019-05-26T09:57:42.272Z,3.27
2019-05-26T10:00:15.706Z,3.43
2019-05-26T10:02:43.094Z,3.13
2019-05-26T10:05:12.759Z,3.13
2019-05-26T10:07:42.127Z,2.50
2019-05-26T10:10:13.191Z,2.90
2019-05-26T10:12:42.524Z,2.40
2019-05-26T10:15:12.280Z,2.67
2019-05-26T10:17:41.644Z,2.90
2019-05-26T10:20:11.507Z,2.90
2019-05-26T10:22:40.809Z,2.50
2019-05-26T10:25:10.467Z,2.53
2019-05-26T10:27:39.764Z,2.90
2019-05-26T10:30:13.891Z,2.90
2019-05-26T10:32:43.187Z,2.83
2019-05-26T10:35:12.561Z,2.60
2019-05-26T10:37:41.862Z,2.57
2019-05-26T10:40:13.060Z,2.80
2019-05-26T10:42:42.359Z,2.77
2019-05-26T10:45:11.926Z,2.43
2019-05-26T10:47:41.295Z,2.50
2019-05-26T10:50:11.236Z,2.80
2019-05-26T10:52:40.530Z,1.97
2019-05-26T10:55:10.109Z,2.10
2019-05-26T10:57:40.517Z,2.60
2019-05-26T11:00:10.843Z,2.33
2019-05-26T11:02:40.138Z,2.10
2019-05-26T11:05:09.602Z,2.97
2019-05-26T11:07:38.898Z,3.20
2019-05-26T11:10:08.637Z,2.90
2019-05-26T11:12:37.934Z,2.30
2019-05-26T11:15:12.034Z,1.80
2019-05-26T11:17:41.336Z,2.23
2019-05-26T11:20:11.477Z,2.47
2019-05-26T11:22:40.771Z,2.13
2019-05-26T11:25:10.342Z,1.77
2019-05-26T11:27:39.645Z,2.20
2019-05-26T11:30:14.388Z,2.13
2019-05-26T11:32:43.772Z,1.80
2019-05-26T11:35:13.563Z,2.00
2019-05-26T11:37:42.852Z,2.07
2019-05-26T11:40:12.618Z,2.00
2019-05-26T11:42:44.934Z,2.70
2019-05-26T11:45:13.978Z,2.17
2019-05-26T11:47:43.454Z,2.30
2019-05-26T11:50:12.924Z,1.93
2019-05-26T11:52:42.224Z,2.40
2019-05-26T11:55:11.729Z,2.37
2019-05-26T11:57:41.026Z,2.27
2019-05-26T12:00:13.463Z,2.27
2019-05-26T12:02:44.061Z,2.00
2019-05-26T12:05:17.285Z,1.83
2019-05-26T12:07:44.816Z,2.67
2019-05-26T12:10:16.826Z,1.60
2019-05-26T12:12:47.322Z,1.97
2019-05-26T12:15:19.197Z,2.20
2019-05-26T12:17:48.502Z,2.37
2019-05-26T12:20:18.039Z,2.10
2019-05-26T12:22:47.339Z,2.17
2019-05-26T12:25:17.610Z,2.07
2019-05-26T12:27:46.900Z,1.90
2019-05-26T12:30:17.091Z,2.27
2019-05-26T12:32:46.432Z,1.83
2019-05-26T12:35:16.101Z,2.40
2019-05-26T12:37:48.265Z,2.20
2019-05-26T12:40:17.145Z,2.10
2019-05-26T12:42:46.465Z,2.13
2019-05-26T12:45:17.296Z,2.30
2019-05-26T12:47:46.743Z,2.30
2019-05-26T12:50:17.427Z,1.53
2019-05-26T12:52:46.735Z,1.95
2019-05-26T12:55:16.202Z,2.20
2019-05-26T12:57:45.522Z,2.08
2019-05-26T13:00:16.369Z,2.20
2019-05-26T13:02:45.755Z,2.07
2019-05-26T13:05:15.196Z,2.02
2019-05-26T13:07:44.492Z,2.08
2019-05-26T13:10:14.160Z,2.03
2019-05-26T13:12:43.540Z,2.05
2019-05-26T13:15:15.184Z,1.56
2019-05-26T13:17:44.505Z,2.45
2019-05-26T13:20:15.545Z,1.90
2019-05-26T13:22:44.911Z,1.90
2019-05-26T13:25:14.511Z,1.75
2019-05-26T13:27:43.831Z,2.00
2019-05-26T13:30:24.458Z,2.00
2019-05-26T13:32:53.819Z,1.75
2019-05-26T13:35:23.580Z,1.82
2019-05-26T13:37:53.285Z,1.90
2019-05-26T13:40:22.819Z,1.80
2019-05-26T13:42:52.289Z,2.22
2019-05-26T13:45:23.475Z,2.00
2019-05-26T13:47:52.942Z,1.92
2019-05-26T13:50:22.627Z,2.00
2019-05-26T13:52:51.922Z,1.95
2019-05-26T13:55:21.563Z,1.67
2019-05-26T13:57:50.868Z,1.80
2019-05-26T14:00:22.373Z,2.00
2019-05-26T14:02:51.677Z,2.00
2019-05-26T14:05:21.046Z,1.90
2019-05-26T14:07:50.520Z,2.10
2019-05-26T14:10:32.009Z,1.70
2019-05-26T14:13:01.661Z,2.10
2019-05-26T14:15:38.311Z,1.70
2019-05-26T14:18:02.925Z,1.60
2019-05-26T14:20:37.472Z,2.02
2019-05-26T14:23:07.612Z,1.87
2019-05-26T14:25:37.140Z,1.42
2019-05-26T14:28:07.191Z,1.90
2019-05-26T14:30:36.625Z,1.50
2019-05-26T14:33:06.223Z,1.95
2019-05-26T14:35:35.601Z,1.65
2019-05-26T14:38:05.070Z,1.70
2019-05-26T14:40:34.383Z,1.87
2019-05-26T14:43:03.672Z,1.70
2019-05-26T14:45:32.960Z,1.60
2019-05-26T14:48:02.263Z,1.45
2019-05-26T14:50:31.563Z,1.80
2019-05-26T14:53:00.890Z,1.80
2019-05-26T14:55:30.188Z,1.85
2019-05-26T14:58:14.297Z,1.98
2019-05-26T15:00:31.012Z,1.70
2019-05-26T15:03:00.403Z,1.82
2019-05-26T15:05:29.699Z,1.70
2019-05-26T15:07:58.994Z,2.17
2019-05-26T15:10:28.291Z,1.32
2019-05-26T15:12:57.592Z,1.50
2019-05-26T15:15:26.886Z,1.62
2019-05-26T15:17:56.204Z,1.40
2019-05-26T15:20:25.503Z,1.92
2019-05-26T15:22:54.805Z,1.77
2019-05-26T15:25:24.100Z,2.02
2019-05-26T15:27:53.399Z,1.45
2019-05-26T15:30:22.938Z,2.00
2019-05-26T15:32:52.237Z,1.50
2019-05-26T15:35:21.543Z,1.72
2019-05-26T15:37:50.850Z,1.50
2019-05-26T15:40:20.232Z,2.22
2019-05-26T15:42:49.529Z,1.80
2019-05-26T15:45:19.069Z,1.45
2019-05-26T15:47:48.629Z,1.77
2019-05-26T15:50:18.097Z,2.25
2019-05-26T15:52:47.395Z,1.98
2019-05-26T15:55:16.965Z,1.62
2019-05-26T15:57:46.266Z,1.50
2019-05-26T16:00:15.636Z,1.60
2019-05-26T16:02:45.014Z,1.62
2019-05-26T16:05:14.322Z,1.90
2019-05-26T16:07:43.617Z,1.32
2019-05-26T16:10:13.552Z,1.50
2019-05-26T16:12:42.949Z,1.50
2019-05-26T16:15:12.889Z,1.80
2019-05-26T16:17:42.267Z,1.45
2019-05-26T16:20:11.977Z,1.40
2019-05-26T16:22:41.353Z,1.50
2019-05-26T16:25:12.562Z,1.35
2019-05-26T16:27:42.938Z,1.82
2019-05-26T16:30:12.494Z,1.82
2019-05-26T16:32:41.797Z,1.40
2019-05-26T16:35:11.102Z,1.42
2019-05-26T16:37:40.400Z,2.02
2019-05-26T16:40:09.705Z,1.85
2019-05-26T16:42:39.007Z,1.70
2019-05-26T16:45:09.712Z,1.50
2019-05-26T16:47:39.008Z,1.87
2019-05-26T16:50:08.897Z,1.57
2019-05-26T16:52:39.903Z,2.00
2019-05-26T16:55:09.285Z,1.72
2019-05-26T16:57:38.658Z,1.50
2019-05-26T17:00:10.092Z,1.90
2019-05-26T17:02:39.402Z,1.37
2019-05-26T17:05:08.861Z,1.57
2019-05-26T17:07:38.162Z,1.67
2019-05-26T17:10:09.136Z,1.70
2019-05-26T17:12:38.440Z,1.50
2019-05-26T17:15:08.604Z,1.60
2019-05-26T17:17:37.904Z,1.42
2019-05-26T17:20:08.345Z,1.30
2019-05-26T17:22:37.645Z,1.45
2019-05-26T17:25:07.269Z,1.75
2019-05-26T17:27:36.633Z,1.65
2019-05-26T17:30:07.569Z,2.12
2019-05-26T17:32:37.013Z,1.75
2019-05-26T17:35:06.968Z,1.65
2019-05-26T17:37:36.270Z,1.40
2019-05-26T17:40:07.146Z,1.50
2019-05-26T17:42:36.508Z,1.57
2019-05-26T17:45:06.970Z,1.90
2019-05-26T17:47:36.267Z,1.60
2019-05-26T17:50:09.196Z,1.47
2019-05-26T17:52:38.580Z,1.80
2019-05-26T17:55:08.533Z,1.67
2019-05-26T17:57:37.973Z,1.60
2019-05-26T18:00:11.409Z,1.70
2019-05-26T18:02:40.906Z,1.53
2019-05-26T18:05:11.680Z,1.77
2019-05-26T18:07:41.258Z,1.83
2019-05-26T18:10:10.816Z,1.80
2019-05-26T18:12:40.138Z,1.77
2019-05-26T18:15:09.704Z,1.80
2019-05-26T18:17:46.909Z,1.77
2019-05-26T18:20:10.889Z,1.80
2019-05-26T18:22:40.253Z,2.40
2019-05-26T18:25:10.003Z,2.30
2019-05-26T18:27:39.318Z,2.17
2019-05-26T18:30:09.963Z,3.20
2019-05-26T18:32:39.255Z,5.60
2019-05-26T18:35:08.621Z,5.20
2019-05-26T18:37:38.200Z,4.83
2019-05-26T18:40:08.233Z,3.80
2019-05-26T18:42:37.545Z,3.33
2019-05-26T18:45:10.016Z,3.37
2019-05-26T18:47:39.480Z,2.50
2019-05-26T18:50:08.957Z,4.00
2019-05-26T18:52:38.333Z,4.27
2019-05-26T18:55:09.036Z,2.50
2019-05-26T18:57:38.333Z,2.90
2019-05-26T19:00:09.681Z,2.30
2019-05-26T19:02:39.071Z,1.80
2019-05-26T19:05:08.706Z,2.23
2019-05-26T19:07:38.032Z,2.17
2019-05-26T19:10:08.967Z,2.70
2019-05-26T19:12:38.332Z,2.80
2019-05-26T19:15:08.603Z,3.43
2019-05-26T19:17:37.907Z,3.90
2019-05-26T19:20:16.283Z,2.30
2019-05-26T19:22:38.902Z,2.10
2019-05-26T19:25:08.437Z,2.00
2019-05-26T19:27:37.824Z,2.10
2019-05-26T19:30:09.432Z,2.33
2019-05-26T19:32:38.783Z,2.43
2019-05-26T19:35:08.387Z,2.40
2019-05-26T19:37:37.979Z,2.10
2019-05-26T19:40:08.923Z,2.03
2019-05-26T19:42:38.300Z,2.50
2019-05-26T19:45:07.940Z,2.30
2019-05-26T19:47:37.626Z,2.27
2019-05-26T19:50:07.570Z,2.40
2019-05-26T19:52:36.873Z,2.57
2019-05-26T19:55:07.139Z,2.00
2019-05-26T19:57:36.524Z,2.73
2019-05-26T20:00:09.591Z,2.50
2019-05-26T20:02:39.180Z,2.37
2019-05-26T20:05:08.810Z,2.60
2019-05-26T20:07:38.204Z,2.73
2019-05-26T20:10:08.944Z,2.60
2019-05-26T20:12:38.264Z,3.10
2019-05-26T20:15:09.243Z,3.17
2019-05-26T20:17:38.568Z,2.80
2019-05-26T20:20:09.302Z,2.77
2019-05-26T20:22:38.758Z,2.80
2019-05-26T20:25:08.805Z,3.17
2019-05-26T20:27:38.296Z,2.90
2019-05-26T20:30:08.227Z,2.40
2019-05-26T20:32:37.654Z,2.83
2019-05-26T20:35:07.793Z,2.90
2019-05-26T20:37:37.114Z,2.87
2019-05-26T20:40:07.248Z,2.90
2019-05-26T20:42:36.583Z,3.50
2019-05-26T20:45:09.538Z,3.63
2019-05-26T20:47:38.919Z,3.97
2019-05-26T20:50:08.751Z,3.87
2019-05-26T20:52:38.244Z,4.40
2019-05-26T20:55:07.930Z,3.80
2019-05-26T20:57:37.401Z,3.20
2019-05-26T21:00:09.700Z,2.97
2019-05-26T21:02:39.643Z,3.23
2019-05-26T21:05:10.327Z,3.20
2019-05-26T21:07:39.607Z,3.67
2019-05-26T21:10:09.900Z,3.40
2019-05-26T21:12:39.203Z,3.77
2019-05-26T21:15:09.362Z,3.20
2019-05-26T21:17:38.663Z,3.30
2019-05-26T21:20:09.225Z,3.47
2019-05-26T21:22:38.518Z,3.47
2019-05-26T21:25:08.368Z,3.63
2019-05-26T21:27:37.664Z,3.40
2019-05-26T21:30:11.059Z,3.90
2019-05-26T21:32:40.362Z,4.20
2019-05-26T21:35:10.797Z,4.00
2019-05-26T21:37:40.098Z,4.10
2019-05-26T21:40:09.636Z,3.80
2019-05-26T21:42:38.988Z,4.30
2019-05-26T21:45:08.745Z,4.27
2019-05-26T21:47:38.047Z,4.10
2019-05-26T21:50:09.003Z,4.40
2019-05-26T21:52:38.297Z,4.60
2019-05-26T21:55:08.868Z,4.40
2019-05-26T21:57:38.166Z,4.50
2019-05-26T22:00:11.067Z,4.03
2019-05-26T22:02:42.142Z,4.47
2019-05-26T22:05:11.530Z,4.17
2019-05-26T22:07:40.832Z,4.50
2019-05-26T22:10:10.488Z,4.80
2019-05-26T22:12:39.960Z,4.03
2019-05-26T22:15:10.595Z,4.67
2019-05-26T22:17:53.656Z,4.35
2019-05-26T22:20:23.049Z,5.20
2019-05-26T22:22:52.350Z,4.20
2019-05-26T22:25:21.667Z,4.50
2019-05-26T22:27:51.014Z,4.63
2019-05-26T22:30:20.532Z,4.87
2019-05-26T22:32:49.828Z,4.90
2019-05-26T22:35:19.203Z,4.57
2019-05-26T22:37:48.444Z,4.40
2019-05-26T22:40:17.934Z,4.50
2019-05-26T22:42:47.233Z,4.80
2019-05-26T22:45:16.556Z,4.83
2019-05-26T22:47:45.857Z,3.67
2019-05-26T22:50:15.548Z,4.37
2019-05-26T22:52:44.847Z,4.07
2019-05-26T22:55:14.169Z,4.30
2019-05-26T22:57:43.469Z,3.97
2019-05-26T23:00:13.435Z,4.20
2019-05-26T23:02:42.808Z,4.07
2019-05-26T23:05:12.398Z,3.83
2019-05-26T23:07:41.704Z,4.10
2019-05-26T23:10:11.252Z,4.13
2019-05-26T23:12:40.555Z,4.40
2019-05-26T23:15:10.422Z,3.93
2019-05-26T23:17:39.717Z,3.90
2019-05-26T23:20:09.168Z,3.63
2019-05-26T23:22:38.478Z,3.10
2019-05-26T23:25:08.036Z,3.70
2019-05-26T23:27:37.371Z,3.27
2019-05-26T23:30:07.908Z,3.53
2019-05-26T23:32:37.291Z,4.20
2019-05-26T23:35:07.387Z,4.00
2019-05-26T23:37:37.048Z,3.80
2019-05-26T23:40:07.403Z,3.70
2019-05-26T23:42:36.698Z,4.10
2019-05-26T23:45:07.558Z,4.07
2019-05-26T23:47:36.854Z,3.93
2019-05-26T23:50:07.964Z,3.77
2019-05-26T23:52:37.327Z,4.33
2019-05-26T23:55:08.355Z,4.30
2019-05-26T23:57:37.710Z,3.90
